createdAt,value
2023-01-11T00:01:10.840Z,4.17
2023-01-11T00:03:43.490Z,4.18
2023-01-11T00:06:11.774Z,4.18
2023-01-11T00:08:39.243Z,4.22
2023-01-11T00:11:15.763Z,4.18
2023-01-11T00:13:46.173Z,4.17
2023-01-11T00:16:13.948Z,4.21
2023-01-11T00:18:43.749Z,4.22
2023-01-11T00:21:10.534Z,4.21
2023-01-11T00:23:38.555Z,4.24
2023-01-11T00:26:13.190Z,4.20
2023-01-11T00:28:39.800Z,4.25
2023-01-11T00:31:09.849Z,4.25
2023-01-11T00:33:36.538Z,4.28
2023-01-11T00:36:03.291Z,4.30
2023-01-11T00:38:46.767Z,4.31
2023-01-11T00:41:34.998Z,4.31
2023-01-11T00:44:22.322Z,4.34
2023-01-11T00:47:11.309Z,4.32
2023-01-11T00:49:38.224Z,4.32
2023-01-11T00:52:09.804Z,4.33
2023-01-11T00:54:43.683Z,4.37
2023-01-11T00:57:10.467Z,4.37
2023-01-11T00:59:41.310Z,4.38
2023-01-11T01:02:12.340Z,4.44
2023-01-11T01:04:42.777Z,4.48
2023-01-11T01:07:09.592Z,4.51
2023-01-11T01:09:40.271Z,4.49
2023-01-11T01:12:09.951Z,4.50
2023-01-11T01:14:36.868Z,4.52
2023-01-11T01:17:08.942Z,4.56
2023-01-11T01:19:46.300Z,4.56
2023-01-11T01:22:12.992Z,4.62
2023-01-11T01:24:42.190Z,4.64
2023-01-11T01:27:16.676Z,4.68
2023-01-11T01:29:44.490Z,4.72
2023-01-11T01:32:11.601Z,4.77
2023-01-11T01:34:41.471Z,4.78
2023-01-11T01:37:11.088Z,4.83
2023-01-11T01:39:37.970Z,4.87
2023-01-11T01:42:06.268Z,4.89
2023-01-11T01:45:16.750Z,4.92
2023-01-11T01:48:16.128Z,4.94
2023-01-11T01:50:59.883Z,4.94
2023-01-11T01:53:37.349Z,4.97
2023-01-11T01:56:13.226Z,4.97
2023-01-11T01:58:56.323Z,5.00
2023-01-11T02:01:41.429Z,4.96
2023-01-11T02:04:42.909Z,5.00
2023-01-11T02:07:20.807Z,5.04
2023-01-11T02:10:05.181Z,5.09
2023-01-11T02:12:40.680Z,5.09
2023-01-11T02:15:12.400Z,5.10
2023-01-11T02:17:39.159Z,5.15
2023-01-11T02:20:27.127Z,5.21
2023-01-11T02:23:16.792Z,5.22
2023-01-11T02:26:41.897Z,5.26
2023-01-11T02:29:42.416Z,5.28
2023-01-11T02:32:35.288Z,5.30
2023-01-11T02:35:57.752Z,5.34
2023-01-11T02:38:47.349Z,5.37
2023-01-11T02:41:57.172Z,5.38
2023-01-11T02:45:01.921Z,5.43
2023-01-11T02:48:02.175Z,5.41
2023-01-11T02:50:55.254Z,5.43
2023-01-11T02:53:42.459Z,5.43
2023-01-11T02:56:24.713Z,5.43
2023-01-11T02:58:56.851Z,5.43
2023-01-11T03:01:25.619Z,5.43
2023-01-11T03:03:54.044Z,5.46
2023-01-11T03:06:34.609Z,5.48
2023-01-11T03:09:56.940Z,5.50
2023-01-11T03:12:52.683Z,5.53
2023-01-11T03:16:16.584Z,5.57
2023-01-11T03:19:25.587Z,5.62
2023-01-11T03:22:15.982Z,5.64
2023-01-11T03:25:12.161Z,5.67
2023-01-11T03:28:33.140Z,5.68
2023-01-11T03:31:15.198Z,5.69
2023-01-11T03:34:27.789Z,5.70
2023-01-11T03:37:11.024Z,5.74
2023-01-11T03:40:04.173Z,5.76
2023-01-11T03:42:57.364Z,5.79
2023-01-11T03:45:28.749Z,5.81
2023-01-11T03:48:02.108Z,5.80
2023-01-11T03:50:33.347Z,5.87
2023-01-11T03:53:07.423Z,5.90
2023-01-11T03:55:44.419Z,5.92
2023-01-11T03:58:11.364Z,5.92
2023-01-11T04:00:41.016Z,5.94
2023-01-11T04:03:12.623Z,6.00
2023-01-11T04:05:47.113Z,6.08
2023-01-11T04:08:17.021Z,6.11
2023-01-11T04:10:43.735Z,6.14
2023-01-11T04:13:10.441Z,6.18
2023-01-11T04:15:37.579Z,6.23
2023-01-11T04:18:08.095Z,6.24
2023-01-11T04:20:42.693Z,6.28
2023-01-11T04:23:12.516Z,6.30
2023-01-11T04:25:40.615Z,6.31
2023-01-11T04:28:11.294Z,6.34
2023-01-11T04:30:38.000Z,6.33
2023-01-11T04:33:07.752Z,6.43
2023-01-11T04:35:34.446Z,6.45
2023-01-11T04:38:01.165Z,6.46
2023-01-11T04:40:27.851Z,6.46
2023-01-11T04:42:54.557Z,6.43
2023-01-11T04:45:21.299Z,6.52
2023-01-11T04:47:58.010Z,6.47
2023-01-11T04:50:26.326Z,6.55
2023-01-11T04:52:53.588Z,6.55
2023-01-11T04:55:21.267Z,6.56
2023-01-11T04:57:50.153Z,6.58
2023-01-11T05:00:17.656Z,6.58
2023-01-11T05:02:44.362Z,6.60
2023-01-11T05:05:12.104Z,6.63
2023-01-11T05:07:41.945Z,6.64
2023-01-11T06:04:26.074Z,7.21
2023-01-11T06:06:52.842Z,7.22
2023-01-11T07:28:00.230Z,7.68
2023-01-11T07:30:30.532Z,7.69
2023-01-11T07:33:00.508Z,7.70
2023-01-11T07:35:29.132Z,7.74
2023-01-11T07:37:56.027Z,7.72
2023-01-11T07:40:22.835Z,7.72
2023-01-11T07:43:13.558Z,7.73
2023-01-11T07:45:50.148Z,7.77
2023-01-11T07:48:24.527Z,7.77
2023-01-11T07:50:52.436Z,7.80
2023-01-11T07:53:19.211Z,7.82
2023-01-11T07:55:47.471Z,7.81
2023-01-11T07:58:15.553Z,7.85
2023-01-11T08:00:46.151Z,7.86
2023-01-11T08:03:13.339Z,7.83
2023-01-11T08:05:40.765Z,7.86
2023-01-11T08:08:10.457Z,7.87
2023-01-11T08:10:37.157Z,7.86
2023-01-11T08:13:32.515Z,7.86
2023-01-11T08:16:00.050Z,7.86
2023-01-11T08:18:26.798Z,7.86
2023-01-11T08:20:53.577Z,7.90
2023-01-11T08:23:20.207Z,7.91
2023-01-11T08:25:46.891Z,7.90
2023-01-11T08:28:13.595Z,7.92
2023-01-11T08:30:47.179Z,7.91
2023-01-11T08:33:13.913Z,7.96
2023-01-11T08:35:40.942Z,7.98
2023-01-11T08:38:08.158Z,8.02
2023-01-11T08:40:38.041Z,8.03
2023-01-11T08:43:04.909Z,8.07
2023-01-11T08:45:31.585Z,8.08
2023-01-11T08:48:00.478Z,8.12
2023-01-11T08:50:27.608Z,8.12
2023-01-11T08:52:54.253Z,8.14
2023-01-11T08:55:20.914Z,8.15
2023-01-11T08:57:47.659Z,8.19
2023-01-11T09:00:15.654Z,8.16
2023-01-11T09:02:42.583Z,8.19
2023-01-11T09:05:09.886Z,8.21
2023-01-11T09:07:36.607Z,8.33
2023-01-11T09:10:04.891Z,8.41
2023-01-11T09:12:32.703Z,8.42
2023-01-11T09:14:59.680Z,8.51
2023-01-11T09:17:26.367Z,8.58
2023-01-11T09:19:53.002Z,8.58
2023-01-11T09:22:19.657Z,8.50
2023-01-11T09:24:46.434Z,8.55
2023-01-11T09:27:13.148Z,8.52
2023-01-11T09:29:39.961Z,8.61
2023-01-11T09:32:09.275Z,8.65
2023-01-11T09:34:37.965Z,8.63
2023-01-11T09:37:07.100Z,8.59
2023-01-11T09:39:35.359Z,8.62
2023-01-11T09:42:35.486Z,8.67
2023-01-11T09:45:23.445Z,8.65
2023-01-11T09:48:31.845Z,8.67
2023-01-11T09:51:00.019Z,8.69
2023-01-11T09:53:38.150Z,8.71
2023-01-11T09:56:14.121Z,8.71
2023-01-11T09:59:51.963Z,8.73
2023-01-11T10:02:49.743Z,8.65
2023-01-11T10:05:49.990Z,8.65
2023-01-11T10:18:26.285Z,8.83
2023-01-11T10:19:39.862Z,8.88
2023-01-11T10:22:41.810Z,8.92
2023-01-11T10:25:33.552Z,8.85
2023-01-11T10:28:35.244Z,8.79
2023-01-11T10:31:35.025Z,8.76
2023-01-11T10:34:24.728Z,8.69
2023-01-11T10:37:17.411Z,8.70
2023-01-11T10:43:25.469Z,8.67
2023-01-11T10:48:47.124Z,8.63
2023-01-11T10:51:45.559Z,8.63
2023-01-11T10:54:33.221Z,8.64
2023-01-11T10:57:15.954Z,8.64
2023-01-11T11:00:05.045Z,8.64
2023-01-11T11:03:27.381Z,8.65
2023-01-11T11:06:35.843Z,8.66
2023-01-11T11:09:33.025Z,8.71
2023-01-11T11:12:28.616Z,8.68
2023-01-11T11:15:13.993Z,8.71
2023-01-11T11:17:50.018Z,8.72
2023-01-11T11:20:31.976Z,8.70
2023-01-11T11:22:59.571Z,8.65
2023-01-11T11:25:35.565Z,8.67
2023-01-11T11:28:22.687Z,8.67
2023-01-11T11:31:01.633Z,8.58
2023-01-11T11:33:41.097Z,8.51
2023-01-11T11:36:12.871Z,8.49
2023-01-11T11:39:09.524Z,8.37
2023-01-11T11:41:57.032Z,8.27
2023-01-11T11:44:31.002Z,8.24
2023-01-11T11:47:14.879Z,8.13
2023-01-11T11:49:42.228Z,8.07
2023-01-11T11:52:17.666Z,8.02
2023-01-11T11:54:56.835Z,7.99
2023-01-11T11:57:33.170Z,7.97
2023-01-11T12:00:28.226Z,7.97
2023-01-11T12:03:08.325Z,7.93
2023-01-11T12:05:35.042Z,7.97
2023-01-11T12:08:06.075Z,7.96
2023-01-11T12:10:33.157Z,7.97
2023-01-11T12:13:03.389Z,8.03
2023-01-11T12:15:33.767Z,8.05
2023-01-11T12:18:42.389Z,8.11
2023-01-11T12:21:32.095Z,8.12
2023-01-11T12:24:13.219Z,8.08
2023-01-11T12:27:30.370Z,8.08
2023-01-11T12:30:46.614Z,8.09
2023-01-11T12:34:22.794Z,8.10
2023-01-11T12:37:03.909Z,8.05
2023-01-11T12:39:57.632Z,8.02
2023-01-11T12:43:20.469Z,8.00
2023-01-11T12:46:09.546Z,8.00
2023-01-11T12:48:55.268Z,7.98
2023-01-11T12:51:36.993Z,7.99
2023-01-11T12:54:42.921Z,7.99
2023-01-11T12:58:02.291Z,7.96
2023-01-11T13:00:54.074Z,7.93
2023-01-11T13:14:03.104Z,7.84
2023-01-11T14:15:51.856Z,7.36
2023-01-11T14:22:04.715Z,7.07
2023-01-11T15:15:47.837Z,5.97
2023-01-11T15:18:22.858Z,5.96
2023-01-11T15:21:06.071Z,5.84
2023-01-11T15:23:48.573Z,5.88
2023-01-11T15:26:19.623Z,5.92
2023-01-11T15:28:54.653Z,6.00
2023-01-11T15:32:09.562Z,6.15
2023-01-11T15:34:38.936Z,6.03
2023-01-11T15:37:45.374Z,6.03
2023-01-11T15:40:19.426Z,6.03
2023-01-11T15:43:21.593Z,6.00
2023-01-11T15:46:29.694Z,6.00
2023-01-11T15:49:46.024Z,5.95
2023-01-11T15:52:52.716Z,5.88
2023-01-11T15:55:37.562Z,5.98
2023-01-11T15:59:00.769Z,6.07
2023-01-11T16:01:36.487Z,6.12
2023-01-11T16:04:33.013Z,6.11
2023-01-11T16:07:44.666Z,6.19
2023-01-11T16:10:58.236Z,6.09
2023-01-11T16:14:14.151Z,6.01
2023-01-11T16:16:55.759Z,5.98
2023-01-11T16:19:34.572Z,5.91
2023-01-11T16:22:07.626Z,5.82
2023-01-11T16:24:51.970Z,5.69
2023-01-11T16:27:30.949Z,5.50
2023-01-11T16:29:58.010Z,5.34
2023-01-11T16:32:34.014Z,5.28
2023-01-11T16:35:03.555Z,5.27
2023-01-11T16:37:42.803Z,5.29
2023-01-11T16:40:18.651Z,5.20
2023-01-11T16:43:04.495Z,5.24
2023-01-11T16:45:53.996Z,5.24
2023-01-11T16:48:27.170Z,5.24
2023-01-11T16:51:07.068Z,5.14
2023-01-11T16:53:37.805Z,5.21
2023-01-11T16:56:23.901Z,5.17
2023-01-11T16:59:16.074Z,5.11
2023-01-11T17:01:53.433Z,5.14
2023-01-11T17:04:30.786Z,5.30
2023-01-11T17:07:13.276Z,5.32
2023-01-11T17:09:43.724Z,5.34
2023-01-11T17:12:18.628Z,5.31
2023-01-11T17:15:30.556Z,5.15
2023-01-11T17:18:03.627Z,5.11
2023-01-11T17:20:31.681Z,4.92
2023-01-11T17:22:59.488Z,5.01
2023-01-11T17:25:44.457Z,5.00
2023-01-11T17:28:19.475Z,4.89
2023-01-11T17:30:54.099Z,4.93
2023-01-11T17:33:33.527Z,4.80
2023-01-11T17:36:01.749Z,4.74
2023-01-11T17:38:30.296Z,4.84
2023-01-11T17:40:58.650Z,4.90
2023-01-11T17:43:53.280Z,4.86
2023-01-11T17:46:26.742Z,4.96
2023-01-11T17:48:57.745Z,5.03
2023-01-11T17:51:28.156Z,5.08
2023-01-11T18:07:52.957Z,4.95
2023-01-11T19:03:12.668Z,5.49
2023-01-11T20:56:05.678Z,5.15
2023-01-11T21:01:24.935Z,5.22
2023-01-11T21:47:15.290Z,5.14
2023-01-11T22:00:25.017Z,5.15
2023-01-11T22:02:54.372Z,5.22
2023-01-11T22:05:21.014Z,5.27
2023-01-11T22:07:48.727Z,5.14
2023-01-11T22:10:16.278Z,5.19
2023-01-11T22:12:43.113Z,5.21
2023-01-11T22:15:10.511Z,5.18
2023-01-11T22:17:37.369Z,5.15
2023-01-11T22:36:37.216Z,5.36
2023-01-11T22:39:08.680Z,5.40
2023-01-11T22:41:35.555Z,5.44
2023-01-11T22:44:02.154Z,5.49
2023-01-11T22:46:28.870Z,5.47
2023-01-11T22:49:09.036Z,5.51
2023-01-11T22:51:36.167Z,5.55
2023-01-11T22:54:04.127Z,5.66
2023-01-11T22:56:32.328Z,5.68
2023-01-11T22:58:59.872Z,5.69
2023-01-11T23:01:34.046Z,5.79
2023-01-11T23:04:02.307Z,5.90
2023-01-11T23:06:41.728Z,5.89
2023-01-11T23:09:16.046Z,5.85
2023-01-11T23:12:02.738Z,5.83
2023-01-11T23:14:32.807Z,5.82
2023-01-11T23:17:06.937Z,5.76
2023-01-11T23:19:43.044Z,5.75
2023-01-11T23:22:10.391Z,5.76
2023-01-11T23:24:37.865Z,5.84
2023-01-11T23:27:05.382Z,5.87
2023-01-11T23:29:32.255Z,5.84
2023-01-11T23:32:01.939Z,5.87
2023-01-11T23:34:28.644Z,5.96
2023-01-11T23:36:55.645Z,5.95
2023-01-11T23:39:23.586Z,5.96
2023-01-11T23:42:08.663Z,5.96
2023-01-11T23:44:35.385Z,5.97
2023-01-11T23:47:20.449Z,5.97
2023-01-11T23:49:54.223Z,5.94
2023-01-11T23:52:27.369Z,5.95
2023-01-11T23:54:54.555Z,5.99
2023-01-11T23:57:22.662Z,6.00
2023-01-11T23:59:49.598Z,5.96
